sensor_id;sensor_type;location;lat;lon;timestamp;P1;durP1;ratioP1;P2;durP2;ratioP2
438;SDS011;206;48.782;9.252;2023-06-10T00:00:33;8.43;;;7.97;;
438;SDS011;206;48.782;9.252;2023-06-10T00:02:59;8.60;;;7.90;;
438;SDS011;206;48.782;9.252;2023-06-10T00:05:24;8.10;;;7.70;;
438;SDS011;206;48.782;9.252;2023-06-10T00:07:54;8.43;;;7.97;;
438;SDS011;206;48.782;9.252;2023-06-10T00:10:21;8.73;;;7.10;;
438;SDS011;206;48.782;9.252;2023-06-10T00:12:47;7.20;;;6.80;;
438;SDS011;206;48.782;9.252;2023-06-10T00:15:13;7.50;;;7.10;;
438;SDS011;206;48.782;9.252;2023-06-10T00:17:38;7.33;;;6.63;;
438;SDS011;206;48.782;9.252;2023-06-10T00:20:06;7.23;;;6.70;;
438;SDS011;206;48.782;9.252;2023-06-10T00:22:34;7.60;;;7.20;;
438;SDS011;206;48.782;9.252;2023-06-10T00:24:59;7.80;;;7.40;;
438;SDS011;206;48.782;9.252;2023-06-10T00:27:25;9.80;;;6.87;;
438;SDS011;206;48.782;9.252;2023-06-10T00:29:56;7.23;;;6.83;;
438;SDS011;206;48.782;9.252;2023-06-10T00:32:22;12.70;;;7.77;;
438;SDS011;206;48.782;9.252;2023-06-10T00:34:47;7.80;;;7.40;;
438;SDS011;206;48.782;9.252;2023-06-10T00:37:13;10.70;;;7.50;;
438;SDS011;206;48.782;9.252;2023-06-10T00:39:38;8.37;;;7.93;;
438;SDS011;206;48.782;9.252;2023-06-10T00:42:04;7.30;;;6.90;;
438;SDS011;206;48.782;9.252;2023-06-10T00:44:32;7.10;;;6.70;;
438;SDS011;206;48.782;9.252;2023-06-10T00:46:57;7.00;;;6.60;;
438;SDS011;206;48.782;9.252;2023-06-10T00:49:23;7.90;;;7.50;;
438;SDS011;206;48.782;9.252;2023-06-10T00:51:49;7.40;;;6.70;;
438;SDS011;206;48.782;9.252;2023-06-10T00:54:17;6.60;;;6.20;;
438;SDS011;206;48.782;9.252;2023-06-10T00:56:43;7.93;;;6.87;;
438;SDS011;206;48.782;9.252;2023-06-10T00:59:09;7.20;;;6.80;;
438;SDS011;206;48.782;9.252;2023-06-10T01:01:34;7.40;;;6.60;;
438;SDS011;206;48.782;9.252;2023-06-10T01:04:02;7.70;;;6.20;;
438;SDS011;206;48.782;9.252;2023-06-10T01:09:18;7.30;;;6.90;;
438;SDS011;206;48.782;9.252;2023-06-10T01:11:52;7.07;;;6.67;;
438;SDS011;206;48.782;9.252;2023-06-10T01:14:38;7.10;;;6.70;;
438;SDS011;206;48.782;9.252;2023-06-10T01:17:09;7.00;;;6.60;;
438;SDS011;206;48.782;9.252;2023-06-10T01:19:35;9.50;;;6.47;;
438;SDS011;206;48.782;9.252;2023-06-10T01:22:01;7.43;;;7.03;;
438;SDS011;206;48.782;9.252;2023-06-10T01:24:28;6.50;;;6.10;;
438;SDS011;206;48.782;9.252;2023-06-10T01:26:58;6.80;;;6.10;;
438;SDS011;206;48.782;9.252;2023-06-10T01:29:43;6.53;;;6.13;;
438;SDS011;206;48.782;9.252;2023-06-10T01:32:15;6.97;;;6.57;;
438;SDS011;206;48.782;9.252;2023-06-10T01:34:46;5.50;;;5.20;;
438;SDS011;206;48.782;9.252;2023-06-10T01:37:14;7.47;;;7.07;;
438;SDS011;206;48.782;9.252;2023-06-10T01:39:43;7.10;;;6.70;;
438;SDS011;206;48.782;9.252;2023-06-10T01:42:11;7.80;;;7.40;;
438;SDS011;206;48.782;9.252;2023-06-10T01:44:37;5.70;;;5.40;;
438;SDS011;206;48.782;9.252;2023-06-10T01:47:04;6.23;;;5.90;;
438;SDS011;206;48.782;9.252;2023-06-10T01:49:30;7.40;;;6.40;;
438;SDS011;206;48.782;9.252;2023-06-10T01:51:56;7.60;;;7.20;;
438;SDS011;206;48.782;9.252;2023-06-10T01:54:21;5.93;;;5.63;;
438;SDS011;206;48.782;9.252;2023-06-10T01:56:47;5.60;;;5.30;;
438;SDS011;206;48.782;9.252;2023-06-10T01:59:12;6.37;;;6.00;;
438;SDS011;206;48.782;9.252;2023-06-10T02:01:38;6.70;;;6.30;;
438;SDS011;206;48.782;9.252;2023-06-10T02:04:03;6.97;;;6.57;;
438;SDS011;206;48.782;9.252;2023-06-10T02:06:29;6.70;;;6.30;;
438;SDS011;206;48.782;9.252;2023-06-10T02:08:55;6.70;;;6.20;;
438;SDS011;206;48.782;9.252;2023-06-10T02:11:20;6.53;;;6.13;;
438;SDS011;206;48.782;9.252;2023-06-10T02:13:46;6.73;;;6.33;;
438;SDS011;206;48.782;9.252;2023-06-10T02:16:12;6.60;;;6.20;;
438;SDS011;206;48.782;9.252;2023-06-10T02:18:39;6.80;;;6.40;;
438;SDS011;206;48.782;9.252;2023-06-10T02:21:08;6.10;;;5.80;;
438;SDS011;206;48.782;9.252;2023-06-10T02:23:34;6.23;;;5.90;;
438;SDS011;206;48.782;9.252;2023-06-10T02:26:00;8.17;;;6.50;;
438;SDS011;206;48.782;9.252;2023-06-10T02:28:25;5.73;;;5.43;;
438;SDS011;206;48.782;9.252;2023-06-10T02:30:51;6.67;;;6.27;;
438;SDS011;206;48.782;9.252;2023-06-10T02:33:17;6.37;;;6.00;;
438;SDS011;206;48.782;9.252;2023-06-10T02:35:43;6.60;;;6.20;;
438;SDS011;206;48.782;9.252;2023-06-10T02:38:08;6.70;;;6.30;;
438;SDS011;206;48.782;9.252;2023-06-10T02:40:34;6.97;;;6.57;;
438;SDS011;206;48.782;9.252;2023-06-10T02:43:00;6.53;;;6.13;;
438;SDS011;206;48.782;9.252;2023-06-10T02:45:25;6.80;;;6.43;;
438;SDS011;206;48.782;9.252;2023-06-10T02:47:51;6.87;;;6.47;;
438;SDS011;206;48.782;9.252;2023-06-10T02:50:17;7.00;;;6.60;;
438;SDS011;206;48.782;9.252;2023-06-10T02:52:42;6.93;;;6.53;;
438;SDS011;206;48.782;9.252;2023-06-10T02:55:08;5.70;;;5.40;;
438;SDS011;206;48.782;9.252;2023-06-10T02:57:34;6.87;;;6.47;;
438;SDS011;206;48.782;9.252;2023-06-10T03:00:00;6.30;;;5.90;;
438;SDS011;206;48.782;9.252;2023-06-10T03:02:27;8.37;;;5.90;;
438;SDS011;206;48.782;9.252;2023-06-10T03:04:56;5.40;;;5.10;;
438;SDS011;206;48.782;9.252;2023-06-10T03:07:21;6.33;;;5.97;;
438;SDS011;206;48.782;9.252;2023-06-10T03:09:48;5.97;;;5.67;;
438;SDS011;206;48.782;9.252;2023-06-10T03:12:13;8.50;;;5.63;;
438;SDS011;206;48.782;9.252;2023-06-10T03:14:39;5.57;;;5.27;;
438;SDS011;206;48.782;9.252;2023-06-10T03:17:06;6.43;;;6.03;;
438;SDS011;206;48.782;9.252;2023-06-10T03:19:33;7.20;;;6.80;;
438;SDS011;206;48.782;9.252;2023-06-10T03:22:09;7.87;;;7.47;;
438;SDS011;206;48.782;9.252;2023-06-10T03:24:36;6.70;;;6.30;;
438;SDS011;206;48.782;9.252;2023-06-10T03:27:04;7.83;;;6.90;;
438;SDS011;206;48.782;9.252;2023-06-10T03:29:34;6.90;;;6.20;;
438;SDS011;206;48.782;9.252;2023-06-10T03:32:00;7.10;;;6.67;;
438;SDS011;206;48.782;9.252;2023-06-10T03:34:26;9.73;;;7.17;;
438;SDS011;206;48.782;9.252;2023-06-10T03:36:52;6.40;;;6.00;;
438;SDS011;206;48.782;9.252;2023-06-10T03:39:18;6.73;;;6.33;;
438;SDS011;206;48.782;9.252;2023-06-10T03:41:43;6.50;;;6.10;;
438;SDS011;206;48.782;9.252;2023-06-10T03:44:09;7.47;;;7.07;;
438;SDS011;206;48.782;9.252;2023-06-10T03:46:34;7.87;;;7.47;;
438;SDS011;206;48.782;9.252;2023-06-10T03:49:00;6.87;;;6.47;;
438;SDS011;206;48.782;9.252;2023-06-10T03:51:26;6.63;;;6.23;;
438;SDS011;206;48.782;9.252;2023-06-10T03:53:52;6.83;;;6.43;;
438;SDS011;206;48.782;9.252;2023-06-10T03:56:18;7.40;;;7.00;;
438;SDS011;206;48.782;9.252;2023-06-10T03:58:43;7.00;;;6.60;;
438;SDS011;206;48.782;9.252;2023-06-10T04:01:09;7.73;;;6.70;;
438;SDS011;206;48.782;9.252;2023-06-10T04:03:35;7.40;;;7.00;;
438;SDS011;206;48.782;9.252;2023-06-10T04:06:01;7.03;;;6.63;;
438;SDS011;206;48.782;9.252;2023-06-10T04:08:27;7.37;;;6.97;;
438;SDS011;206;48.782;9.252;2023-06-10T04:10:53;7.30;;;6.87;;
438;SDS011;206;48.782;9.252;2023-06-10T04:13:19;7.27;;;6.83;;
438;SDS011;206;48.782;9.252;2023-06-10T04:15:44;7.40;;;7.00;;
438;SDS011;206;48.782;9.252;2023-06-10T04:18:10;10.27;;;7.47;;
438;SDS011;206;48.782;9.252;2023-06-10T04:20:36;7.43;;;7.03;;
438;SDS011;206;48.782;9.252;2023-06-10T04:23:01;6.63;;;6.23;;
438;SDS011;206;48.782;9.252;2023-06-10T04:25:27;14.60;;;8.50;;
438;SDS011;206;48.782;9.252;2023-06-10T04:27:53;7.33;;;6.93;;
438;SDS011;206;48.782;9.252;2023-06-10T04:30:19;6.97;;;6.57;;
438;SDS011;206;48.782;9.252;2023-06-10T04:32:45;8.43;;;6.40;;
438;SDS011;206;48.782;9.252;2023-06-10T04:35:12;7.90;;;6.23;;
438;SDS011;206;48.782;9.252;2023-06-10T04:37:39;6.90;;;6.50;;
438;SDS011;206;48.782;9.252;2023-06-10T04:40:05;8.07;;;7.27;;
438;SDS011;206;48.782;9.252;2023-06-10T04:42:31;7.30;;;6.90;;
438;SDS011;206;48.782;9.252;2023-06-10T04:44:57;7.70;;;7.33;;
438;SDS011;206;48.782;9.252;2023-06-10T04:47:22;6.73;;;6.37;;
438;SDS011;206;48.782;9.252;2023-06-10T04:49:48;7.33;;;6.93;;
438;SDS011;206;48.782;9.252;2023-06-10T04:52:13;7.70;;;7.30;;
438;SDS011;206;48.782;9.252;2023-06-10T04:54:39;7.20;;;6.80;;
438;SDS011;206;48.782;9.252;2023-06-10T04:57:06;7.83;;;7.43;;
438;SDS011;206;48.782;9.252;2023-06-10T04:59:33;8.73;;;7.60;;
438;SDS011;206;48.782;9.252;2023-06-10T05:02:02;7.93;;;7.53;;
438;SDS011;206;48.782;9.252;2023-06-10T05:04:28;8.80;;;8.30;;
438;SDS011;206;48.782;9.252;2023-06-10T05:06:54;8.60;;;8.10;;
438;SDS011;206;48.782;9.252;2023-06-10T05:09:20;8.43;;;7.97;;
438;SDS011;206;48.782;9.252;2023-06-10T05:11:46;8.60;;;7.10;;
438;SDS011;206;48.782;9.252;2023-06-10T05:14:11;7.90;;;7.50;;
438;SDS011;206;48.782;9.252;2023-06-10T05:16:37;7.73;;;7.33;;
438;SDS011;206;48.782;9.252;2023-06-10T05:19:03;6.83;;;6.43;;
438;SDS011;206;48.782;9.252;2023-06-10T05:21:29;12.63;;;8.10;;
438;SDS011;206;48.782;9.252;2023-06-10T05:23:55;9.10;;;7.50;;
438;SDS011;206;48.782;9.252;2023-06-10T05:26:21;6.70;;;6.00;;
438;SDS011;206;48.782;9.252;2023-06-10T05:28:47;7.40;;;6.93;;
438;SDS011;206;48.782;9.252;2023-06-10T05:31:12;7.93;;;7.53;;
438;SDS011;206;48.782;9.252;2023-06-10T05:33:38;10.07;;;7.07;;
438;SDS011;206;48.782;9.252;2023-06-10T05:36:04;7.63;;;7.23;;
438;SDS011;206;48.782;9.252;2023-06-10T05:38:30;8.53;;;7.63;;
438;SDS011;206;48.782;9.252;2023-06-10T05:40:56;11.80;;;6.63;;
438;SDS011;206;48.782;9.252;2023-06-10T05:43:23;6.60;;;6.00;;
438;SDS011;206;48.782;9.252;2023-06-10T05:45:49;7.60;;;6.80;;
438;SDS011;206;48.782;9.252;2023-06-10T05:48:15;6.60;;;6.20;;
438;SDS011;206;48.782;9.252;2023-06-10T05:50:40;8.33;;;7.30;;
438;SDS011;206;48.782;9.252;2023-06-10T05:53:07;7.20;;;6.80;;
438;SDS011;206;48.782;9.252;2023-06-10T05:55:39;6.43;;;6.03;;
438;SDS011;206;48.782;9.252;2023-06-10T05:58:09;6.80;;;6.40;;
438;SDS011;206;48.782;9.252;2023-06-10T06:00:35;6.87;;;6.47;;
438;SDS011;206;48.782;9.252;2023-06-10T06:03:00;7.40;;;7.00;;
438;SDS011;206;48.782;9.252;2023-06-10T06:05:26;6.73;;;6.23;;
438;SDS011;206;48.782;9.252;2023-06-10T06:07:52;6.37;;;6.00;;
438;SDS011;206;48.782;9.252;2023-06-10T06:10:17;5.63;;;5.33;;
438;SDS011;206;48.782;9.252;2023-06-10T06:12:43;6.03;;;5.73;;
438;SDS011;206;48.782;9.252;2023-06-10T06:15:10;5.93;;;5.50;;
438;SDS011;206;48.782;9.252;2023-06-10T06:17:36;5.33;;;5.03;;
438;SDS011;206;48.782;9.252;2023-06-10T06:20:02;5.80;;;5.03;;
438;SDS011;206;48.782;9.252;2023-06-10T06:22:28;12.20;;;7.60;;
438;SDS011;206;48.782;9.252;2023-06-10T06:24:54;6.23;;;5.90;;
438;SDS011;206;48.782;9.252;2023-06-10T06:27:19;5.30;;;5.00;;
438;SDS011;206;48.782;9.252;2023-06-10T06:29:46;5.73;;;5.43;;
438;SDS011;206;48.782;9.252;2023-06-10T06:32:11;5.10;;;4.80;;
438;SDS011;206;48.782;9.252;2023-06-10T06:34:37;5.57;;;5.27;;
438;SDS011;206;48.782;9.252;2023-06-10T06:37:03;7.77;;;5.93;;
438;SDS011;206;48.782;9.252;2023-06-10T06:39:28;5.43;;;5.13;;
438;SDS011;206;48.782;9.252;2023-06-10T06:41:54;7.33;;;5.37;;
438;SDS011;206;48.782;9.252;2023-06-10T06:44:19;5.40;;;5.10;;
438;SDS011;206;48.782;9.252;2023-06-10T06:46:45;5.47;;;5.20;;
438;SDS011;206;48.782;9.252;2023-06-10T06:49:11;5.13;;;4.83;;
438;SDS011;206;48.782;9.252;2023-06-10T06:51:36;6.13;;;5.83;;
438;SDS011;206;48.782;9.252;2023-06-10T06:54:02;5.80;;;5.50;;
438;SDS011;206;48.782;9.252;2023-06-10T06:56:28;4.60;;;4.30;;
438;SDS011;206;48.782;9.252;2023-06-10T06:58:53;5.17;;;4.87;;
438;SDS011;206;48.782;9.252;2023-06-10T07:01:19;4.90;;;4.60;;
438;SDS011;206;48.782;9.252;2023-06-10T07:03:45;6.73;;;5.70;;
438;SDS011;206;48.782;9.252;2023-06-10T07:06:12;6.20;;;5.87;;
438;SDS011;206;48.782;9.252;2023-06-10T07:08:38;5.07;;;4.77;;
438;SDS011;206;48.782;9.252;2023-06-10T07:11:03;5.47;;;5.17;;
438;SDS011;206;48.782;9.252;2023-06-10T07:13:29;5.93;;;5.63;;
438;SDS011;206;48.782;9.252;2023-06-10T07:15:55;6.00;;;5.70;;
438;SDS011;206;48.782;9.252;2023-06-10T07:18:20;5.83;;;5.53;;
438;SDS011;206;48.782;9.252;2023-06-10T07:20:46;6.37;;;5.37;;
438;SDS011;206;48.782;9.252;2023-06-10T07:23:11;4.77;;;4.47;;
438;SDS011;206;48.782;9.252;2023-06-10T07:25:37;5.93;;;5.63;;
438;SDS011;206;48.782;9.252;2023-06-10T07:28:03;5.83;;;5.53;;
438;SDS011;206;48.782;9.252;2023-06-10T07:30:28;5.83;;;5.53;;
438;SDS011;206;48.782;9.252;2023-06-10T07:32:54;6.27;;;5.93;;
438;SDS011;206;48.782;9.252;2023-06-10T07:35:20;8.00;;;5.43;;
438;SDS011;206;48.782;9.252;2023-06-10T07:37:46;3.23;;;3.03;;
438;SDS011;206;48.782;9.252;2023-06-10T07:40:12;5.17;;;4.87;;
438;SDS011;206;48.782;9.252;2023-06-10T07:42:37;5.23;;;4.93;;
438;SDS011;206;48.782;9.252;2023-06-10T07:45:03;5.23;;;4.93;;
438;SDS011;206;48.782;9.252;2023-06-10T07:47:30;5.40;;;5.10;;
438;SDS011;206;48.782;9.252;2023-06-10T07:49:57;4.97;;;4.60;;
438;SDS011;206;48.782;9.252;2023-06-10T07:52:23;5.47;;;5.17;;
438;SDS011;206;48.782;9.252;2023-06-10T07:54:49;6.17;;;5.87;;
438;SDS011;206;48.782;9.252;2023-06-10T07:57:15;5.40;;;5.10;;
438;SDS011;206;48.782;9.252;2023-06-10T07:59:40;5.43;;;5.13;;
438;SDS011;206;48.782;9.252;2023-06-10T08:02:06;6.17;;;4.47;;
438;SDS011;206;48.782;9.252;2023-06-10T08:04:32;4.90;;;4.60;;
438;SDS011;206;48.782;9.252;2023-06-10T08:07:00;5.50;;;4.90;;
438;SDS011;206;48.782;9.252;2023-06-10T08:09:25;4.87;;;4.57;;
438;SDS011;206;48.782;9.252;2023-06-10T08:11:51;5.70;;;5.40;;
438;SDS011;206;48.782;9.252;2023-06-10T08:14:16;5.30;;;4.50;;
438;SDS011;206;48.782;9.252;2023-06-10T08:16:43;6.13;;;5.83;;
438;SDS011;206;48.782;9.252;2023-06-10T08:19:08;5.10;;;4.80;;
438;SDS011;206;48.782;9.252;2023-06-10T08:21:34;5.17;;;4.87;;
438;SDS011;206;48.782;9.252;2023-06-10T08:24:02;4.87;;;4.57;;
438;SDS011;206;48.782;9.252;2023-06-10T08:26:28;5.20;;;4.90;;
438;SDS011;206;48.782;9.252;2023-06-10T08:28:53;5.70;;;4.77;;
438;SDS011;206;48.782;9.252;2023-06-10T08:31:20;5.20;;;4.90;;
438;SDS011;206;48.782;9.252;2023-06-10T08:33:46;5.77;;;4.80;;
438;SDS011;206;48.782;9.252;2023-06-10T08:36:11;5.70;;;5.40;;
438;SDS011;206;48.782;9.252;2023-06-10T08:38:37;4.57;;;4.27;;
438;SDS011;206;48.782;9.252;2023-06-10T08:41:04;4.80;;;4.50;;
438;SDS011;206;48.782;9.252;2023-06-10T08:43:39;5.40;;;5.10;;
438;SDS011;206;48.782;9.252;2023-06-10T08:46:09;5.20;;;4.90;;
438;SDS011;206;48.782;9.252;2023-06-10T08:48:36;5.00;;;4.70;;
438;SDS011;206;48.782;9.252;2023-06-10T08:51:07;5.93;;;5.63;;
438;SDS011;206;48.782;9.252;2023-06-10T08:53:36;5.50;;;5.20;;
438;SDS011;206;48.782;9.252;2023-06-10T08:56:09;4.87;;;4.57;;
438;SDS011;206;48.782;9.252;2023-06-10T08:58:36;6.70;;;4.70;;
438;SDS011;206;48.782;9.252;2023-06-10T09:01:06;4.60;;;4.30;;
438;SDS011;206;48.782;9.252;2023-06-10T09:03:33;5.00;;;4.70;;
438;SDS011;206;48.782;9.252;2023-06-10T09:06:02;4.80;;;4.50;;
438;SDS011;206;48.782;9.252;2023-06-10T09:08:29;5.43;;;5.13;;
438;SDS011;206;48.782;9.252;2023-06-10T09:10:55;5.43;;;5.13;;
438;SDS011;206;48.782;9.252;2023-06-10T09:13:22;4.80;;;4.50;;
438;SDS011;206;48.782;9.252;2023-06-10T09:15:48;5.20;;;4.80;;
438;SDS011;206;48.782;9.252;2023-06-10T09:18:16;4.90;;;4.63;;
438;SDS011;206;48.782;9.252;2023-06-10T09:20:42;5.20;;;4.47;;
438;SDS011;206;48.782;9.252;2023-06-10T09:23:08;5.40;;;5.10;;
438;SDS011;206;48.782;9.252;2023-06-10T09:25:35;4.60;;;4.30;;
438;SDS011;206;48.782;9.252;2023-06-10T09:28:02;5.50;;;5.20;;
438;SDS011;206;48.782;9.252;2023-06-10T09:30:29;4.30;;;3.83;;
438;SDS011;206;48.782;9.252;2023-06-10T09:32:56;4.50;;;4.20;;
438;SDS011;206;48.782;9.252;2023-06-10T09:35:25;4.57;;;4.27;;
438;SDS011;206;48.782;9.252;2023-06-10T09:37:52;5.10;;;4.80;;
438;SDS011;206;48.782;9.252;2023-06-10T09:40:21;6.23;;;5.00;;
438;SDS011;206;48.782;9.252;2023-06-10T09:42:51;5.53;;;5.23;;
438;SDS011;206;48.782;9.252;2023-06-10T09:45:22;5.40;;;5.10;;
438;SDS011;206;48.782;9.252;2023-06-10T09:47:51;5.53;;;5.23;;
438;SDS011;206;48.782;9.252;2023-06-10T09:50:20;5.00;;;4.70;;
438;SDS011;206;48.782;9.252;2023-06-10T09:52:46;5.80;;;5.50;;
438;SDS011;206;48.782;9.252;2023-06-10T09:55:13;6.37;;;4.60;;
438;SDS011;206;48.782;9.252;2023-06-10T09:57:39;5.10;;;4.80;;
438;SDS011;206;48.782;9.252;2023-06-10T10:00:06;5.50;;;5.20;;
438;SDS011;206;48.782;9.252;2023-06-10T10:02:48;5.20;;;4.80;;
438;SDS011;206;48.782;9.252;2023-06-10T10:05:16;4.50;;;4.20;;
438;SDS011;206;48.782;9.252;2023-06-10T10:07:43;4.90;;;4.60;;
438;SDS011;206;48.782;9.252;2023-06-10T10:10:09;5.97;;;5.20;;
438;SDS011;206;48.782;9.252;2023-06-10T10:12:39;5.70;;;5.43;;
438;SDS011;206;48.782;9.252;2023-06-10T10:15:06;5.03;;;4.73;;
438;SDS011;206;48.782;9.252;2023-06-10T10:17:33;7.23;;;5.40;;
438;SDS011;206;48.782;9.252;2023-06-10T10:20:04;5.00;;;4.70;;
438;SDS011;206;48.782;9.252;2023-06-10T10:22:37;9.80;;;5.20;;
438;SDS011;206;48.782;9.252;2023-06-10T10:25:13;5.40;;;4.40;;
438;SDS011;206;48.782;9.252;2023-06-10T10:27:49;6.47;;;5.00;;
438;SDS011;206;48.782;9.252;2023-06-10T10:30:17;5.80;;;5.50;;
438;SDS011;206;48.782;9.252;2023-06-10T10:32:56;5.37;;;5.07;;
438;SDS011;206;48.782;9.252;2023-06-10T10:35:28;5.10;;;4.80;;
438;SDS011;206;48.782;9.252;2023-06-10T10:37:57;4.70;;;4.40;;
438;SDS011;206;48.782;9.252;2023-06-10T10:40:24;5.23;;;4.93;;
438;SDS011;206;48.782;9.252;2023-06-10T10:42:54;5.80;;;4.63;;
438;SDS011;206;48.782;9.252;2023-06-10T10:45:21;5.03;;;4.73;;
438;SDS011;206;48.782;9.252;2023-06-10T10:47:48;5.20;;;4.40;;
438;SDS011;206;48.782;9.252;2023-06-10T10:50:18;6.43;;;4.00;;
438;SDS011;206;48.782;9.252;2023-06-10T10:52:52;4.77;;;4.43;;
438;SDS011;206;48.782;9.252;2023-06-10T10:55:20;10.43;;;5.20;;
438;SDS011;206;48.782;9.252;2023-06-10T10:57:53;6.50;;;4.33;;
438;SDS011;206;48.782;9.252;2023-06-10T11:00:25;5.23;;;4.93;;
438;SDS011;206;48.782;9.252;2023-06-10T11:02:53;6.03;;;4.67;;
438;SDS011;206;48.782;9.252;2023-06-10T11:05:36;9.23;;;4.97;;
438;SDS011;206;48.782;9.252;2023-06-10T11:08:02;6.93;;;4.20;;
438;SDS011;206;48.782;9.252;2023-06-10T11:10:29;5.33;;;5.03;;
438;SDS011;206;48.782;9.252;2023-06-10T11:12:56;7.83;;;5.50;;
438;SDS011;206;48.782;9.252;2023-06-10T11:15:23;5.40;;;5.10;;
438;SDS011;206;48.782;9.252;2023-06-10T11:28:40;4.77;;;4.47;;
438;SDS011;206;48.782;9.252;2023-06-10T11:31:07;5.33;;;4.90;;
438;SDS011;206;48.782;9.252;2023-06-10T11:33:33;4.53;;;4.23;;
438;SDS011;206;48.782;9.252;2023-06-10T11:36:06;4.87;;;4.57;;
438;SDS011;206;48.782;9.252;2023-06-10T11:38:32;6.60;;;4.70;;
438;SDS011;206;48.782;9.252;2023-06-10T11:40:58;5.10;;;4.83;;
438;SDS011;206;48.782;9.252;2023-06-10T11:43:23;5.17;;;4.77;;
438;SDS011;206;48.782;9.252;2023-06-10T11:45:53;5.53;;;5.27;;
438;SDS011;206;48.782;9.252;2023-06-10T11:48:20;5.40;;;5.10;;
438;SDS011;206;48.782;9.252;2023-06-10T11:50:46;5.30;;;5.00;;
438;SDS011;206;48.782;9.252;2023-06-10T11:53:11;5.13;;;4.47;;
438;SDS011;206;48.782;9.252;2023-06-10T11:58:11;4.03;;;3.83;;
438;SDS011;206;48.782;9.252;2023-06-10T12:00:53;5.20;;;4.90;;
438;SDS011;206;48.782;9.252;2023-06-10T12:03:23;5.47;;;4.60;;
438;SDS011;206;48.782;9.252;2023-06-10T12:06:03;4.80;;;4.50;;
438;SDS011;206;48.782;9.252;2023-06-10T12:08:30;4.70;;;4.40;;
438;SDS011;206;48.782;9.252;2023-06-10T12:10:56;4.53;;;4.20;;
438;SDS011;206;48.782;9.252;2023-06-10T12:13:23;5.70;;;5.40;;
438;SDS011;206;48.782;9.252;2023-06-10T12:15:51;4.70;;;4.40;;
438;SDS011;206;48.782;9.252;2023-06-10T12:18:21;5.73;;;5.43;;
438;SDS011;206;48.782;9.252;2023-06-10T12:20:48;4.90;;;4.60;;
438;SDS011;206;48.782;9.252;2023-06-10T12:26:20;5.30;;;4.67;;
438;SDS011;206;48.782;9.252;2023-06-10T12:29:22;9.90;;;4.83;;
438;SDS011;206;48.782;9.252;2023-06-10T12:31:59;4.07;;;3.87;;
438;SDS011;206;48.782;9.252;2023-06-10T12:34:31;4.73;;;4.00;;
438;SDS011;206;48.782;9.252;2023-06-10T12:36:58;4.80;;;4.50;;
438;SDS011;206;48.782;9.252;2023-06-10T12:39:25;4.57;;;4.27;;
438;SDS011;206;48.782;9.252;2023-06-10T12:41:51;5.20;;;4.53;;
438;SDS011;206;48.782;9.252;2023-06-10T12:44:17;4.90;;;4.57;;
438;SDS011;206;48.782;9.252;2023-06-10T12:46:42;4.57;;;4.27;;
438;SDS011;206;48.782;9.252;2023-06-10T12:49:18;4.63;;;4.33;;
438;SDS011;206;48.782;9.252;2023-06-10T12:51:44;4.60;;;4.30;;
438;SDS011;206;48.782;9.252;2023-06-10T12:54:10;4.73;;;4.43;;
438;SDS011;206;48.782;9.252;2023-06-10T12:56:36;5.17;;;4.87;;
438;SDS011;206;48.782;9.252;2023-06-10T12:59:02;4.47;;;4.17;;
438;SDS011;206;48.782;9.252;2023-06-10T13:01:31;4.37;;;4.10;;
438;SDS011;206;48.782;9.252;2023-06-10T13:03:57;4.80;;;4.50;;
438;SDS011;206;48.782;9.252;2023-06-10T13:06:23;4.60;;;4.30;;
438;SDS011;206;48.782;9.252;2023-06-10T13:08:48;4.57;;;3.93;;
438;SDS011;206;48.782;9.252;2023-06-10T13:11:15;4.53;;;4.23;;
438;SDS011;206;48.782;9.252;2023-06-10T13:13:41;4.13;;;3.90;;
438;SDS011;206;48.782;9.252;2023-06-10T13:16:07;4.13;;;3.90;;
438;SDS011;206;48.782;9.252;2023-06-10T13:18:33;4.30;;;4.00;;
438;SDS011;206;48.782;9.252;2023-06-10T13:21:02;4.30;;;4.00;;
438;SDS011;206;48.782;9.252;2023-06-10T13:23:29;4.43;;;4.13;;
438;SDS011;206;48.782;9.252;2023-06-10T13:25:56;4.30;;;4.00;;
438;SDS011;206;48.782;9.252;2023-06-10T13:28:22;4.37;;;4.07;;
438;SDS011;206;48.782;9.252;2023-06-10T13:30:47;3.90;;;3.70;;
438;SDS011;206;48.782;9.252;2023-06-10T13:33:13;4.10;;;3.90;;
438;SDS011;206;48.782;9.252;2023-06-10T13:35:39;4.70;;;4.40;;
438;SDS011;206;48.782;9.252;2023-06-10T13:38:04;3.93;;;3.73;;
438;SDS011;206;48.782;9.252;2023-06-10T13:40:32;4.10;;;3.90;;
438;SDS011;206;48.782;9.252;2023-06-10T13:42:57;6.45;;;4.30;;
438;SDS011;206;48.782;9.252;2023-06-10T13:45:23;4.30;;;4.00;;
438;SDS011;206;48.782;9.252;2023-06-10T13:47:49;5.00;;;4.47;;
438;SDS011;206;48.782;9.252;2023-06-10T13:50:15;4.60;;;4.17;;
438;SDS011;206;48.782;9.252;2023-06-10T13:52:41;3.60;;;3.43;;
438;SDS011;206;48.782;9.252;2023-06-10T13:55:06;4.00;;;3.80;;
438;SDS011;206;48.782;9.252;2023-06-10T13:57:32;4.67;;;4.37;;
438;SDS011;206;48.782;9.252;2023-06-10T13:59:58;3.80;;;3.60;;
438;SDS011;206;48.782;9.252;2023-06-10T14:02:23;4.47;;;4.17;;
438;SDS011;206;48.782;9.252;2023-06-10T14:04:49;3.87;;;3.67;;
438;SDS011;206;48.782;9.252;2023-06-10T14:07:14;3.90;;;3.70;;
438;SDS011;206;48.782;9.252;2023-06-10T14:09:40;4.50;;;4.20;;
438;SDS011;206;48.782;9.252;2023-06-10T14:12:06;4.47;;;4.17;;
438;SDS011;206;48.782;9.252;2023-06-10T14:14:32;4.03;;;3.83;;
438;SDS011;206;48.782;9.252;2023-06-10T14:16:58;4.53;;;3.63;;
438;SDS011;206;48.782;9.252;2023-06-10T14:19:24;4.13;;;3.90;;
438;SDS011;206;48.782;9.252;2023-06-10T14:21:49;4.43;;;4.13;;
438;SDS011;206;48.782;9.252;2023-06-10T14:24:15;4.10;;;3.90;;
438;SDS011;206;48.782;9.252;2023-06-10T14:26:41;3.70;;;3.50;;
438;SDS011;206;48.782;9.252;2023-06-10T14:29:06;3.77;;;3.60;;
438;SDS011;206;48.782;9.252;2023-06-10T14:31:33;4.50;;;4.20;;
438;SDS011;206;48.782;9.252;2023-06-10T14:33:59;4.97;;;4.67;;
438;SDS011;206;48.782;9.252;2023-06-10T14:36:25;4.97;;;4.67;;
438;SDS011;206;48.782;9.252;2023-06-10T14:38:50;5.17;;;4.40;;
438;SDS011;206;48.782;9.252;2023-06-10T14:41:16;5.30;;;4.20;;
438;SDS011;206;48.782;9.252;2023-06-10T14:43:41;4.90;;;4.60;;
438;SDS011;206;48.782;9.252;2023-06-10T14:46:07;5.03;;;4.73;;
438;SDS011;206;48.782;9.252;2023-06-10T14:48:33;5.10;;;4.80;;
438;SDS011;206;48.782;9.252;2023-06-10T14:50:58;4.90;;;4.07;;
438;SDS011;206;48.782;9.252;2023-06-10T14:53:24;4.80;;;4.50;;
438;SDS011;206;48.782;9.252;2023-06-10T14:55:49;5.13;;;4.57;;
438;SDS011;206;48.782;9.252;2023-06-10T14:58:15;4.60;;;4.30;;
438;SDS011;206;48.782;9.252;2023-06-10T15:00:41;4.80;;;4.50;;
438;SDS011;206;48.782;9.252;2023-06-10T15:03:06;5.30;;;5.00;;
438;SDS011;206;48.782;9.252;2023-06-10T15:05:32;4.43;;;4.13;;
438;SDS011;206;48.782;9.252;2023-06-10T15:07:59;5.00;;;4.70;;
438;SDS011;206;48.782;9.252;2023-06-10T15:10:25;5.37;;;5.07;;
438;SDS011;206;48.782;9.252;2023-06-10T15:12:50;7.70;;;4.27;;
438;SDS011;206;48.782;9.252;2023-06-10T15:15:24;4.50;;;4.20;;
438;SDS011;206;48.782;9.252;2023-06-10T15:17:53;7.10;;;4.57;;
438;SDS011;206;48.782;9.252;2023-06-10T15:20:19;4.80;;;4.50;;
438;SDS011;206;48.782;9.252;2023-06-10T15:22:45;4.70;;;4.40;;
438;SDS011;206;48.782;9.252;2023-06-10T15:25:10;4.93;;;4.63;;
438;SDS011;206;48.782;9.252;2023-06-10T15:27:36;4.90;;;4.60;;
438;SDS011;206;48.782;9.252;2023-06-10T15:30:02;4.60;;;4.30;;
438;SDS011;206;48.782;9.252;2023-06-10T15:32:28;4.60;;;4.30;;
438;SDS011;206;48.782;9.252;2023-06-10T15:34:54;5.07;;;4.77;;
438;SDS011;206;48.782;9.252;2023-06-10T15:37:19;4.63;;;4.33;;
438;SDS011;206;48.782;9.252;2023-06-10T15:39:46;4.30;;;4.03;;
438;SDS011;206;48.782;9.252;2023-06-10T15:42:12;4.00;;;3.80;;
438;SDS011;206;48.782;9.252;2023-06-10T15:44:37;3.60;;;3.40;;
438;SDS011;206;48.782;9.252;2023-06-10T15:47:03;3.23;;;3.03;;
438;SDS011;206;48.782;9.252;2023-06-10T15:49:29;3.77;;;3.57;;
438;SDS011;206;48.782;9.252;2023-06-10T15:51:55;3.97;;;3.77;;
438;SDS011;206;48.782;9.252;2023-06-10T15:54:20;3.20;;;3.00;;
438;SDS011;206;48.782;9.252;2023-06-10T15:56:46;4.47;;;4.17;;
438;SDS011;206;48.782;9.252;2023-06-10T15:59:11;3.03;;;2.83;;
438;SDS011;206;48.782;9.252;2023-06-10T16:01:37;3.40;;;3.20;;